sensor_id;sensor_type;location;lat;lon;timestamp;P1;durP1;ratioP1;P2;durP2;ratioP2
75851;SDS011;64500;52.632;20.656;2022-11-13T00:00:55;35.10;;;22.60;;
75851;SDS011;64500;52.632;20.656;2022-11-13T00:03:23;34.50;;;23.00;;
75851;SDS011;64500;52.632;20.656;2022-11-13T00:05:59;34.20;;;22.90;;
75851;SDS011;64500;52.632;20.656;2022-11-13T00:08:27;32.90;;;22.40;;
75851;SDS011;64500;52.632;20.656;2022-11-13T00:11:05;32.50;;;21.70;;
75851;SDS011;64500;52.632;20.656;2022-11-13T00:13:36;33.20;;;22.30;;
75851;SDS011;64500;52.632;20.656;2022-11-13T00:16:04;34.10;;;23.30;;
75851;SDS011;64500;52.632;20.656;2022-11-13T00:18:35;36.70;;;24.00;;
75851;SDS011;64500;52.632;20.656;2022-11-13T00:21:04;36.50;;;24.00;;
75851;SDS011;64500;52.632;20.656;2022-11-13T00:23:36;37.80;;;22.70;;
75851;SDS011;64500;52.632;20.656;2022-11-13T00:26:08;34.30;;;23.20;;
75851;SDS011;64500;52.632;20.656;2022-11-13T00:28:36;34.60;;;22.50;;
75851;SDS011;64500;52.632;20.656;2022-11-13T00:31:04;34.30;;;23.00;;
75851;SDS011;64500;52.632;20.656;2022-11-13T00:33:32;39.50;;;23.30;;
75851;SDS011;64500;52.632;20.656;2022-11-13T00:36:03;32.20;;;21.60;;
75851;SDS011;64500;52.632;20.656;2022-11-13T00:38:32;37.60;;;23.60;;
75851;SDS011;64500;52.632;20.656;2022-11-13T00:41:00;44.10;;;25.20;;
75851;SDS011;64500;52.632;20.656;2022-11-13T00:43:27;38.70;;;24.70;;
75851;SDS011;64500;52.632;20.656;2022-11-13T00:45:54;36.40;;;23.60;;
75851;SDS011;64500;52.632;20.656;2022-11-13T00:48:21;34.30;;;24.10;;
75851;SDS011;64500;52.632;20.656;2022-11-13T00:50:48;39.60;;;25.60;;
75851;SDS011;64500;52.632;20.656;2022-11-13T00:53:16;38.60;;;25.10;;
75851;SDS011;64500;52.632;20.656;2022-11-13T00:55:43;35.80;;;24.50;;
75851;SDS011;64500;52.632;20.656;2022-11-13T00:58:11;37.80;;;25.20;;
75851;SDS011;64500;52.632;20.656;2022-11-13T01:00:39;40.90;;;25.20;;
75851;SDS011;64500;52.632;20.656;2022-11-13T01:03:08;39.30;;;25.90;;
75851;SDS011;64500;52.632;20.656;2022-11-13T01:05:37;39.20;;;25.60;;
75851;SDS011;64500;52.632;20.656;2022-11-13T01:08:05;42.30;;;26.20;;
75851;SDS011;64500;52.632;20.656;2022-11-13T01:10:33;40.20;;;26.60;;
75851;SDS011;64500;52.632;20.656;2022-11-13T01:13:03;38.50;;;26.40;;
75851;SDS011;64500;52.632;20.656;2022-11-13T01:15:30;37.20;;;25.00;;
75851;SDS011;64500;52.632;20.656;2022-11-13T01:17:57;39.40;;;26.50;;
75851;SDS011;64500;52.632;20.656;2022-11-13T01:20:25;39.50;;;27.20;;
75851;SDS011;64500;52.632;20.656;2022-11-13T01:22:53;42.20;;;26.70;;
75851;SDS011;64500;52.632;20.656;2022-11-13T01:25:20;41.40;;;26.60;;
75851;SDS011;64500;52.632;20.656;2022-11-13T01:27:47;40.10;;;27.40;;
75851;SDS011;64500;52.632;20.656;2022-11-13T01:30:14;41.60;;;28.10;;
75851;SDS011;64500;52.632;20.656;2022-11-13T01:32:41;41.10;;;27.80;;
75851;SDS011;64500;52.632;20.656;2022-11-13T01:35:07;41.80;;;28.10;;
75851;SDS011;64500;52.632;20.656;2022-11-13T01:37:34;41.50;;;26.60;;
75851;SDS011;64500;52.632;20.656;2022-11-13T01:40:01;41.30;;;27.60;;
75851;SDS011;64500;52.632;20.656;2022-11-13T01:42:31;42.40;;;29.00;;
75851;SDS011;64500;52.632;20.656;2022-11-13T01:44:59;46.50;;;29.60;;
75851;SDS011;64500;52.632;20.656;2022-11-13T01:47:27;44.90;;;29.60;;
75851;SDS011;64500;52.632;20.656;2022-11-13T01:49:57;42.50;;;28.80;;
75851;SDS011;64500;52.632;20.656;2022-11-13T01:52:28;44.70;;;29.40;;
75851;SDS011;64500;52.632;20.656;2022-11-13T01:55:10;43.10;;;28.40;;
75851;SDS011;64500;52.632;20.656;2022-11-13T01:57:39;42.70;;;28.60;;
75851;SDS011;64500;52.632;20.656;2022-11-13T02:00:08;44.30;;;29.10;;
75851;SDS011;64500;52.632;20.656;2022-11-13T02:02:36;40.80;;;28.90;;
75851;SDS011;64500;52.632;20.656;2022-11-13T02:05:04;40.20;;;28.10;;
75851;SDS011;64500;52.632;20.656;2022-11-13T02:07:34;46.80;;;29.50;;
75851;SDS011;64500;52.632;20.656;2022-11-13T02:10:01;42.10;;;27.70;;
75851;SDS011;64500;52.632;20.656;2022-11-13T02:12:32;44.80;;;30.50;;
75851;SDS011;64500;52.632;20.656;2022-11-13T02:15:02;46.30;;;29.80;;
75851;SDS011;64500;52.632;20.656;2022-11-13T02:17:33;41.90;;;29.00;;
75851;SDS011;64500;52.632;20.656;2022-11-13T02:20:03;48.20;;;30.80;;
75851;SDS011;64500;52.632;20.656;2022-11-13T02:22:35;48.40;;;30.10;;
75851;SDS011;64500;52.632;20.656;2022-11-13T02:25:29;43.40;;;28.50;;
75851;SDS011;64500;52.632;20.656;2022-11-13T02:27:57;40.90;;;27.30;;
75851;SDS011;64500;52.632;20.656;2022-11-13T02:30:28;43.80;;;27.80;;
75851;SDS011;64500;52.632;20.656;2022-11-13T02:32:58;41.10;;;27.60;;
75851;SDS011;64500;52.632;20.656;2022-11-13T02:35:29;38.50;;;27.60;;
75851;SDS011;64500;52.632;20.656;2022-11-13T02:37:59;41.50;;;26.50;;
75851;SDS011;64500;52.632;20.656;2022-11-13T02:40:30;41.60;;;26.30;;
75851;SDS011;64500;52.632;20.656;2022-11-13T02:42:57;42.20;;;26.60;;
75851;SDS011;64500;52.632;20.656;2022-11-13T02:45:24;37.40;;;25.60;;
75851;SDS011;64500;52.632;20.656;2022-11-13T02:47:51;39.20;;;26.30;;
75851;SDS011;64500;52.632;20.656;2022-11-13T02:50:18;39.80;;;25.80;;
75851;SDS011;64500;52.632;20.656;2022-11-13T02:52:45;39.50;;;26.30;;
75851;SDS011;64500;52.632;20.656;2022-11-13T02:55:12;37.80;;;25.10;;
75851;SDS011;64500;52.632;20.656;2022-11-13T02:57:39;43.20;;;27.50;;
75851;SDS011;64500;52.632;20.656;2022-11-13T03:00:06;40.00;;;27.00;;
75851;SDS011;64500;52.632;20.656;2022-11-13T03:02:34;44.00;;;28.50;;
75851;SDS011;64500;52.632;20.656;2022-11-13T03:05:00;44.60;;;27.90;;
75851;SDS011;64500;52.632;20.656;2022-11-13T03:07:27;36.70;;;26.10;;
75851;SDS011;64500;52.632;20.656;2022-11-13T03:09:54;39.00;;;25.10;;
75851;SDS011;64500;52.632;20.656;2022-11-13T03:12:22;37.90;;;25.00;;
75851;SDS011;64500;52.632;20.656;2022-11-13T03:14:49;37.70;;;24.20;;
75851;SDS011;64500;52.632;20.656;2022-11-13T03:17:16;37.10;;;25.10;;
75851;SDS011;64500;52.632;20.656;2022-11-13T03:19:42;36.20;;;24.30;;
75851;SDS011;64500;52.632;20.656;2022-11-13T03:22:09;35.70;;;24.50;;
75851;SDS011;64500;52.632;20.656;2022-11-13T03:24:36;39.80;;;25.40;;
75851;SDS011;64500;52.632;20.656;2022-11-13T03:27:03;39.20;;;26.10;;
75851;SDS011;64500;52.632;20.656;2022-11-13T03:29:30;35.40;;;24.00;;
75851;SDS011;64500;52.632;20.656;2022-11-13T03:31:57;37.90;;;25.20;;
75851;SDS011;64500;52.632;20.656;2022-11-13T03:34:24;35.40;;;24.00;;
75851;SDS011;64500;52.632;20.656;2022-11-13T03:36:51;38.10;;;23.80;;
75851;SDS011;64500;52.632;20.656;2022-11-13T03:39:17;37.50;;;24.50;;
75851;SDS011;64500;52.632;20.656;2022-11-13T03:41:44;38.20;;;24.30;;
75851;SDS011;64500;52.632;20.656;2022-11-13T03:44:11;39.00;;;24.90;;
75851;SDS011;64500;52.632;20.656;2022-11-13T03:46:38;34.90;;;25.00;;
75851;SDS011;64500;52.632;20.656;2022-11-13T03:49:05;35.50;;;23.80;;
75851;SDS011;64500;52.632;20.656;2022-11-13T03:51:31;40.50;;;24.20;;
75851;SDS011;64500;52.632;20.656;2022-11-13T03:53:58;36.40;;;24.10;;
75851;SDS011;64500;52.632;20.656;2022-11-13T03:56:25;38.90;;;23.60;;
75851;SDS011;64500;52.632;20.656;2022-11-13T03:58:53;38.10;;;25.80;;
75851;SDS011;64500;52.632;20.656;2022-11-13T04:01:20;36.50;;;25.00;;
75851;SDS011;64500;52.632;20.656;2022-11-13T04:03:46;38.80;;;24.70;;
75851;SDS011;64500;52.632;20.656;2022-11-13T04:06:13;36.80;;;24.70;;
75851;SDS011;64500;52.632;20.656;2022-11-13T04:08:40;38.00;;;25.40;;
75851;SDS011;64500;52.632;20.656;2022-11-13T04:11:08;37.20;;;24.80;;
75851;SDS011;64500;52.632;20.656;2022-11-13T04:13:36;35.00;;;24.80;;
75851;SDS011;64500;52.632;20.656;2022-11-13T04:16:03;38.20;;;25.30;;
75851;SDS011;64500;52.632;20.656;2022-11-13T04:18:31;35.00;;;23.30;;
75851;SDS011;64500;52.632;20.656;2022-11-13T04:20:59;38.60;;;25.20;;
75851;SDS011;64500;52.632;20.656;2022-11-13T04:23:26;36.90;;;24.40;;
75851;SDS011;64500;52.632;20.656;2022-11-13T04:25:54;37.10;;;25.30;;
75851;SDS011;64500;52.632;20.656;2022-11-13T04:28:21;38.00;;;24.70;;
75851;SDS011;64500;52.632;20.656;2022-11-13T04:30:48;39.60;;;26.50;;
75851;SDS011;64500;52.632;20.656;2022-11-13T04:33:15;37.50;;;25.10;;
75851;SDS011;64500;52.632;20.656;2022-11-13T04:35:42;36.20;;;24.20;;
75851;SDS011;64500;52.632;20.656;2022-11-13T04:38:11;39.80;;;26.80;;
75851;SDS011;64500;52.632;20.656;2022-11-13T04:40:38;39.10;;;25.80;;
75851;SDS011;64500;52.632;20.656;2022-11-13T04:43:06;37.80;;;25.10;;
75851;SDS011;64500;52.632;20.656;2022-11-13T04:45:33;38.70;;;25.20;;
75851;SDS011;64500;52.632;20.656;2022-11-13T04:48:00;34.50;;;24.00;;
75851;SDS011;64500;52.632;20.656;2022-11-13T04:50:27;37.50;;;24.30;;
75851;SDS011;64500;52.632;20.656;2022-11-13T04:52:54;38.80;;;25.70;;
75851;SDS011;64500;52.632;20.656;2022-11-13T04:55:21;36.00;;;24.30;;
75851;SDS011;64500;52.632;20.656;2022-11-13T04:57:48;38.30;;;24.30;;
75851;SDS011;64500;52.632;20.656;2022-11-13T05:00:16;36.70;;;25.10;;
75851;SDS011;64500;52.632;20.656;2022-11-13T05:02:43;39.90;;;25.80;;
75851;SDS011;64500;52.632;20.656;2022-11-13T05:05:10;36.00;;;25.40;;
75851;SDS011;64500;52.632;20.656;2022-11-13T05:07:37;37.40;;;24.90;;
75851;SDS011;64500;52.632;20.656;2022-11-13T05:10:04;36.00;;;24.20;;
75851;SDS011;64500;52.632;20.656;2022-11-13T05:12:31;34.80;;;24.60;;
75851;SDS011;64500;52.632;20.656;2022-11-13T05:14:58;35.00;;;24.20;;
75851;SDS011;64500;52.632;20.656;2022-11-13T05:17:25;38.80;;;24.90;;
75851;SDS011;64500;52.632;20.656;2022-11-13T05:19:52;33.60;;;21.70;;
75851;SDS011;64500;52.632;20.656;2022-11-13T05:22:19;34.70;;;23.70;;
75851;SDS011;64500;52.632;20.656;2022-11-13T05:24:46;35.00;;;23.00;;
75851;SDS011;64500;52.632;20.656;2022-11-13T05:27:12;35.10;;;23.50;;
75851;SDS011;64500;52.632;20.656;2022-11-13T05:29:39;34.00;;;23.20;;
75851;SDS011;64500;52.632;20.656;2022-11-13T05:32:06;34.90;;;22.80;;
75851;SDS011;64500;52.632;20.656;2022-11-13T05:34:33;36.00;;;23.70;;
75851;SDS011;64500;52.632;20.656;2022-11-13T05:37:00;32.40;;;22.10;;
75851;SDS011;64500;52.632;20.656;2022-11-13T05:39:26;33.40;;;22.00;;
75851;SDS011;64500;52.632;20.656;2022-11-13T05:41:53;33.10;;;21.60;;
75851;SDS011;64500;52.632;20.656;2022-11-13T05:44:20;33.10;;;22.50;;
75851;SDS011;64500;52.632;20.656;2022-11-13T05:46:47;31.40;;;21.50;;
75851;SDS011;64500;52.632;20.656;2022-11-13T05:49:14;33.30;;;22.00;;
75851;SDS011;64500;52.632;20.656;2022-11-13T05:51:40;32.10;;;21.00;;
75851;SDS011;64500;52.632;20.656;2022-11-13T05:54:07;33.00;;;22.40;;
75851;SDS011;64500;52.632;20.656;2022-11-13T05:56:35;33.20;;;21.70;;
75851;SDS011;64500;52.632;20.656;2022-11-13T05:59:02;31.30;;;21.10;;
75851;SDS011;64500;52.632;20.656;2022-11-13T06:01:34;32.90;;;21.90;;
75851;SDS011;64500;52.632;20.656;2022-11-13T06:04:03;32.70;;;22.20;;
75851;SDS011;64500;52.632;20.656;2022-11-13T06:06:31;31.10;;;21.40;;
75851;SDS011;64500;52.632;20.656;2022-11-13T06:09:00;30.90;;;21.00;;
75851;SDS011;64500;52.632;20.656;2022-11-13T06:11:28;34.10;;;21.60;;
75851;SDS011;64500;52.632;20.656;2022-11-13T06:13:56;31.90;;;20.50;;
75851;SDS011;64500;52.632;20.656;2022-11-13T06:16:28;33.50;;;21.30;;
75851;SDS011;64500;52.632;20.656;2022-11-13T06:19:00;33.50;;;21.60;;
75851;SDS011;64500;52.632;20.656;2022-11-13T06:21:29;32.20;;;21.30;;
75851;SDS011;64500;52.632;20.656;2022-11-13T06:23:58;34.40;;;22.30;;
75851;SDS011;64500;52.632;20.656;2022-11-13T06:26:27;30.20;;;20.50;;
75851;SDS011;64500;52.632;20.656;2022-11-13T06:28:57;34.40;;;21.40;;
75851;SDS011;64500;52.632;20.656;2022-11-13T06:31:26;31.30;;;20.80;;
75851;SDS011;64500;52.632;20.656;2022-11-13T06:33:55;32.80;;;21.50;;
75851;SDS011;64500;52.632;20.656;2022-11-13T06:36:25;33.70;;;22.10;;
75851;SDS011;64500;52.632;20.656;2022-11-13T06:39:00;31.00;;;20.70;;
75851;SDS011;64500;52.632;20.656;2022-11-13T06:41:30;34.80;;;23.40;;
75851;SDS011;64500;52.632;20.656;2022-11-13T06:43:57;31.10;;;21.30;;
75851;SDS011;64500;52.632;20.656;2022-11-13T06:46:26;32.30;;;21.40;;
75851;SDS011;64500;52.632;20.656;2022-11-13T06:48:55;33.70;;;21.40;;
75851;SDS011;64500;52.632;20.656;2022-11-13T06:51:23;31.60;;;21.10;;
75851;SDS011;64500;52.632;20.656;2022-11-13T06:53:52;33.80;;;22.20;;
75851;SDS011;64500;52.632;20.656;2022-11-13T06:56:19;33.40;;;21.90;;
75851;SDS011;64500;52.632;20.656;2022-11-13T06:58:47;35.40;;;22.60;;
75851;SDS011;64500;52.632;20.656;2022-11-13T07:01:17;31.50;;;22.30;;
75851;SDS011;64500;52.632;20.656;2022-11-13T07:03:47;32.40;;;21.80;;
75851;SDS011;64500;52.632;20.656;2022-11-13T07:06:18;31.90;;;21.90;;
75851;SDS011;64500;52.632;20.656;2022-11-13T07:08:46;31.30;;;21.40;;
75851;SDS011;64500;52.632;20.656;2022-11-13T07:11:15;32.10;;;21.20;;
75851;SDS011;64500;52.632;20.656;2022-11-13T07:13:44;34.30;;;21.90;;
75851;SDS011;64500;52.632;20.656;2022-11-13T07:16:12;34.00;;;22.00;;
75851;SDS011;64500;52.632;20.656;2022-11-13T07:18:40;30.00;;;21.20;;
75851;SDS011;64500;52.632;20.656;2022-11-13T07:21:08;32.70;;;22.60;;
75851;SDS011;64500;52.632;20.656;2022-11-13T07:23:36;33.20;;;21.90;;
75851;SDS011;64500;52.632;20.656;2022-11-13T07:26:09;31.50;;;21.30;;
75851;SDS011;64500;52.632;20.656;2022-11-13T07:28:37;31.60;;;22.10;;
75851;SDS011;64500;52.632;20.656;2022-11-13T07:31:05;30.40;;;21.00;;
75851;SDS011;64500;52.632;20.656;2022-11-13T07:33:33;31.40;;;21.20;;
75851;SDS011;64500;52.632;20.656;2022-11-13T07:36:00;30.60;;;20.20;;
75851;SDS011;64500;52.632;20.656;2022-11-13T07:38:27;30.00;;;21.10;;
75851;SDS011;64500;52.632;20.656;2022-11-13T07:40:56;28.00;;;19.80;;
75851;SDS011;64500;52.632;20.656;2022-11-13T07:43:24;29.10;;;19.80;;
75851;SDS011;64500;52.632;20.656;2022-11-13T07:45:51;30.10;;;19.80;;
75851;SDS011;64500;52.632;20.656;2022-11-13T07:48:22;29.30;;;20.40;;
75851;SDS011;64500;52.632;20.656;2022-11-13T07:50:49;27.30;;;18.70;;
75851;SDS011;64500;52.632;20.656;2022-11-13T07:53:17;27.70;;;18.70;;
75851;SDS011;64500;52.632;20.656;2022-11-13T07:55:46;31.10;;;19.10;;
75851;SDS011;64500;52.632;20.656;2022-11-13T07:58:13;26.70;;;18.00;;
75851;SDS011;64500;52.632;20.656;2022-11-13T08:00:40;28.30;;;19.20;;
75851;SDS011;64500;52.632;20.656;2022-11-13T08:03:08;26.70;;;18.20;;
75851;SDS011;64500;52.632;20.656;2022-11-13T08:05:40;26.50;;;17.70;;
75851;SDS011;64500;52.632;20.656;2022-11-13T08:08:11;28.20;;;17.90;;
75851;SDS011;64500;52.632;20.656;2022-11-13T08:10:39;25.70;;;17.30;;
75851;SDS011;64500;52.632;20.656;2022-11-13T08:13:07;22.60;;;16.00;;
75851;SDS011;64500;52.632;20.656;2022-11-13T08:15:36;22.90;;;15.80;;
75851;SDS011;64500;52.632;20.656;2022-11-13T08:18:03;24.50;;;16.80;;
75851;SDS011;64500;52.632;20.656;2022-11-13T08:20:31;24.10;;;16.40;;
75851;SDS011;64500;52.632;20.656;2022-11-13T08:22:59;23.80;;;15.20;;
75851;SDS011;64500;52.632;20.656;2022-11-13T08:25:27;22.70;;;15.20;;
75851;SDS011;64500;52.632;20.656;2022-11-13T08:27:56;26.70;;;17.20;;
75851;SDS011;64500;52.632;20.656;2022-11-13T08:30:24;24.90;;;15.30;;
75851;SDS011;64500;52.632;20.656;2022-11-13T08:32:52;23.60;;;15.80;;
75851;SDS011;64500;52.632;20.656;2022-11-13T08:35:19;22.90;;;15.20;;
75851;SDS011;64500;52.632;20.656;2022-11-13T08:37:46;22.90;;;15.50;;
75851;SDS011;64500;52.632;20.656;2022-11-13T08:40:13;20.50;;;14.30;;
75851;SDS011;64500;52.632;20.656;2022-11-13T08:42:40;23.20;;;15.90;;
75851;SDS011;64500;52.632;20.656;2022-11-13T08:45:07;22.90;;;14.70;;
75851;SDS011;64500;52.632;20.656;2022-11-13T08:47:35;20.20;;;13.50;;
75851;SDS011;64500;52.632;20.656;2022-11-13T08:50:03;21.50;;;14.20;;
75851;SDS011;64500;52.632;20.656;2022-11-13T08:52:31;21.10;;;14.70;;
75851;SDS011;64500;52.632;20.656;2022-11-13T08:54:58;21.20;;;14.70;;
75851;SDS011;64500;52.632;20.656;2022-11-13T08:57:24;21.50;;;14.80;;
75851;SDS011;64500;52.632;20.656;2022-11-13T08:59:51;21.80;;;14.70;;
75851;SDS011;64500;52.632;20.656;2022-11-13T09:02:18;21.60;;;14.70;;
75851;SDS011;64500;52.632;20.656;2022-11-13T09:04:45;21.50;;;13.90;;
75851;SDS011;64500;52.632;20.656;2022-11-13T09:07:13;21.80;;;14.50;;
75851;SDS011;64500;52.632;20.656;2022-11-13T09:09:40;22.40;;;15.10;;
75851;SDS011;64500;52.632;20.656;2022-11-13T09:12:07;21.10;;;15.00;;
75851;SDS011;64500;52.632;20.656;2022-11-13T09:14:35;22.30;;;14.80;;
75851;SDS011;64500;52.632;20.656;2022-11-13T09:17:02;24.70;;;16.10;;
75851;SDS011;64500;52.632;20.656;2022-11-13T09:19:29;21.10;;;14.50;;
75851;SDS011;64500;52.632;20.656;2022-11-13T09:21:56;21.00;;;13.60;;
75851;SDS011;64500;52.632;20.656;2022-11-13T09:24:25;21.30;;;14.30;;
75851;SDS011;64500;52.632;20.656;2022-11-13T09:26:53;21.40;;;14.30;;
75851;SDS011;64500;52.632;20.656;2022-11-13T09:29:19;21.10;;;14.10;;
75851;SDS011;64500;52.632;20.656;2022-11-13T09:31:51;23.00;;;14.50;;
75851;SDS011;64500;52.632;20.656;2022-11-13T09:34:18;20.00;;;13.10;;
75851;SDS011;64500;52.632;20.656;2022-11-13T09:36:45;23.50;;;14.10;;
75851;SDS011;64500;52.632;20.656;2022-11-13T09:39:12;23.60;;;15.10;;
75851;SDS011;64500;52.632;20.656;2022-11-13T09:41:41;21.60;;;13.80;;
75851;SDS011;64500;52.632;20.656;2022-11-13T09:44:23;19.90;;;13.00;;
75851;SDS011;64500;52.632;20.656;2022-11-13T09:47:11;22.00;;;13.70;;
75851;SDS011;64500;52.632;20.656;2022-11-13T09:49:45;21.80;;;13.80;;
75851;SDS011;64500;52.632;20.656;2022-11-13T09:52:36;22.10;;;12.70;;
75851;SDS011;64500;52.632;20.656;2022-11-13T09:55:11;22.50;;;13.30;;
75851;SDS011;64500;52.632;20.656;2022-11-13T09:57:41;20.30;;;12.70;;
75851;SDS011;64500;52.632;20.656;2022-11-13T10:00:10;20.40;;;12.80;;
75851;SDS011;64500;52.632;20.656;2022-11-13T10:08:22;19.30;;;11.00;;
75851;SDS011;64500;52.632;20.656;2022-11-13T10:18:48;21.30;;;12.10;;
75851;SDS011;64500;52.632;20.656;2022-11-13T10:21:23;20.50;;;11.80;;
75851;SDS011;64500;52.632;20.656;2022-11-13T10:24:07;16.60;;;10.70;;
75851;SDS011;64500;52.632;20.656;2022-11-13T10:26:42;18.10;;;10.50;;
75851;SDS011;64500;52.632;20.656;2022-11-13T10:29:10;16.00;;;10.10;;
75851;SDS011;64500;52.632;20.656;2022-11-13T10:31:44;13.10;;;8.20;;
75851;SDS011;64500;52.632;20.656;2022-11-13T10:34:13;13.60;;;8.50;;
75851;SDS011;64500;52.632;20.656;2022-11-13T10:36:46;13.40;;;8.50;;
75851;SDS011;64500;52.632;20.656;2022-11-13T10:39:43;14.90;;;8.40;;
75851;SDS011;64500;52.632;20.656;2022-11-13T10:42:26;14.10;;;8.40;;
75851;SDS011;64500;52.632;20.656;2022-11-13T10:44:57;13.50;;;7.60;;
75851;SDS011;64500;52.632;20.656;2022-11-13T10:47:26;13.50;;;8.60;;
75851;SDS011;64500;52.632;20.656;2022-11-13T10:49:56;15.10;;;8.00;;
75851;SDS011;64500;52.632;20.656;2022-11-13T10:52:42;13.00;;;8.10;;
75851;SDS011;64500;52.632;20.656;2022-11-13T10:55:14;12.60;;;7.20;;
75851;SDS011;64500;52.632;20.656;2022-11-13T10:57:56;12.60;;;7.30;;
75851;SDS011;64500;52.632;20.656;2022-11-13T11:02:59;12.40;;;7.10;;
75851;SDS011;64500;52.632;20.656;2022-11-13T11:05:27;20.70;;;11.40;;
75851;SDS011;64500;52.632;20.656;2022-11-13T11:07:54;19.80;;;11.20;;
75851;SDS011;64500;52.632;20.656;2022-11-13T11:13:02;21.10;;;11.70;;
75851;SDS011;64500;52.632;20.656;2022-11-13T11:15:37;19.60;;;10.90;;
75851;SDS011;64500;52.632;20.656;2022-11-13T11:18:21;22.40;;;11.10;;
75851;SDS011;64500;52.632;20.656;2022-11-13T11:20:55;19.10;;;11.10;;
75851;SDS011;64500;52.632;20.656;2022-11-13T11:23:27;20.20;;;12.00;;
75851;SDS011;64500;52.632;20.656;2022-11-13T11:26:12;22.90;;;14.20;;
75851;SDS011;64500;52.632;20.656;2022-11-13T11:28:45;20.90;;;12.40;;
75851;SDS011;64500;52.632;20.656;2022-11-13T11:34:21;21.80;;;12.80;;
75851;SDS011;64500;52.632;20.656;2022-11-13T11:37:06;22.90;;;13.40;;
75851;SDS011;64500;52.632;20.656;2022-11-13T11:39:41;27.90;;;14.60;;
75851;SDS011;64500;52.632;20.656;2022-11-13T11:48:07;32.50;;;18.80;;
75851;SDS011;64500;52.632;20.656;2022-11-13T12:02:41;28.50;;;17.80;;
75851;SDS011;64500;52.632;20.656;2022-11-13T12:13:39;27.20;;;16.30;;
75851;SDS011;64500;52.632;20.656;2022-11-13T12:16:19;28.50;;;16.80;;
75851;SDS011;64500;52.632;20.656;2022-11-13T12:24:00;32.50;;;18.30;;
75851;SDS011;64500;52.632;20.656;2022-11-13T12:29:48;29.50;;;18.00;;
75851;SDS011;64500;52.632;20.656;2022-11-13T12:35:08;32.20;;;18.30;;
75851;SDS011;64500;52.632;20.656;2022-11-13T12:40:25;28.60;;;18.00;;
75851;SDS011;64500;52.632;20.656;2022-11-13T12:48:09;30.30;;;18.90;;
75851;SDS011;64500;52.632;20.656;2022-11-13T12:50:59;27.60;;;16.60;;
75851;SDS011;64500;52.632;20.656;2022-11-13T12:53:29;29.00;;;17.60;;
75851;SDS011;64500;52.632;20.656;2022-11-13T12:56:12;29.20;;;17.10;;
75851;SDS011;64500;52.632;20.656;2022-11-13T12:58:50;27.50;;;16.70;;
75851;SDS011;64500;52.632;20.656;2022-11-13T13:01:48;28.40;;;16.60;;
75851;SDS011;64500;52.632;20.656;2022-11-13T13:04:41;30.90;;;17.40;;
75851;SDS011;64500;52.632;20.656;2022-11-13T13:13:07;30.70;;;17.70;;
75851;SDS011;64500;52.632;20.656;2022-11-13T13:15:45;29.80;;;17.20;;
75851;SDS011;64500;52.632;20.656;2022-11-13T13:23:35;27.40;;;16.60;;
75851;SDS011;64500;52.632;20.656;2022-11-13T13:26:24;29.80;;;17.30;;
75851;SDS011;64500;52.632;20.656;2022-11-13T13:28:53;31.20;;;17.70;;
75851;SDS011;64500;52.632;20.656;2022-11-13T13:34:13;30.90;;;18.20;;
75851;SDS011;64500;52.632;20.656;2022-11-13T13:42:09;29.10;;;16.90;;
75851;SDS011;64500;52.632;20.656;2022-11-13T13:48:16;29.00;;;16.00;;
75851;SDS011;64500;52.632;20.656;2022-11-13T13:50:47;30.30;;;17.30;;
75851;SDS011;64500;52.632;20.656;2022-11-13T13:53:37;28.50;;;16.60;;
75851;SDS011;64500;52.632;20.656;2022-11-13T13:56:03;32.90;;;17.00;;
75851;SDS011;64500;52.632;20.656;2022-11-13T13:58:35;31.30;;;17.00;;
75851;SDS011;64500;52.632;20.656;2022-11-13T14:01:04;25.00;;;15.80;;
75851;SDS011;64500;52.632;20.656;2022-11-13T14:03:36;25.90;;;15.70;;
75851;SDS011;64500;52.632;20.656;2022-11-13T14:06:16;28.50;;;16.50;;
75851;SDS011;64500;52.632;20.656;2022-11-13T14:08:48;26.70;;;15.80;;
75851;SDS011;64500;52.632;20.656;2022-11-13T14:11:17;27.70;;;16.70;;
75851;SDS011;64500;52.632;20.656;2022-11-13T14:14:07;28.80;;;16.70;;
75851;SDS011;64500;52.632;20.656;2022-11-13T14:16:45;25.10;;;15.40;;
75851;SDS011;64500;52.632;20.656;2022-11-13T14:19:16;26.90;;;15.20;;
75851;SDS011;64500;52.632;20.656;2022-11-13T14:21:44;25.80;;;14.40;;
75851;SDS011;64500;52.632;20.656;2022-11-13T14:24:56;27.20;;;15.80;;
75851;SDS011;64500;52.632;20.656;2022-11-13T14:27:22;27.10;;;15.10;;
75851;SDS011;64500;52.632;20.656;2022-11-13T14:29:55;29.50;;;15.70;;
75851;SDS011;64500;52.632;20.656;2022-11-13T14:32:32;28.40;;;16.00;;
75851;SDS011;64500;52.632;20.656;2022-11-13T14:35:04;28.40;;;16.40;;
75851;SDS011;64500;52.632;20.656;2022-11-13T14:37:34;29.20;;;16.90;;
75851;SDS011;64500;52.632;20.656;2022-11-13T14:40:04;28.00;;;16.80;;
75851;SDS011;64500;52.632;20.656;2022-11-13T14:43:00;29.20;;;16.30;;
75851;SDS011;64500;52.632;20.656;2022-11-13T14:45:32;27.70;;;16.90;;
75851;SDS011;64500;52.632;20.656;2022-11-13T14:48:16;30.00;;;16.60;;
75851;SDS011;64500;52.632;20.656;2022-11-13T14:50:55;27.80;;;15.80;;
75851;SDS011;64500;52.632;20.656;2022-11-13T14:53:37;28.30;;;16.20;;
75851;SDS011;64500;52.632;20.656;2022-11-13T14:56:10;28.90;;;15.50;;
75851;SDS011;64500;52.632;20.656;2022-11-13T14:58:39;28.40;;;16.10;;
75851;SDS011;64500;52.632;20.656;2022-11-13T15:03:45;30.90;;;16.80;;
75851;SDS011;64500;52.632;20.656;2022-11-13T15:06:18;30.80;;;17.40;;
75851;SDS011;64500;52.632;20.656;2022-11-13T15:08:47;30.70;;;17.30;;
75851;SDS011;64500;52.632;20.656;2022-11-13T15:11:17;30.40;;;17.50;;
75851;SDS011;64500;52.632;20.656;2022-11-13T15:13:46;29.80;;;16.50;;
75851;SDS011;64500;52.632;20.656;2022-11-13T15:16:23;27.60;;;16.40;;
75851;SDS011;64500;52.632;20.656;2022-11-13T15:18:58;30.20;;;17.10;;
75851;SDS011;64500;52.632;20.656;2022-11-13T15:21:28;29.80;;;16.60;;
75851;SDS011;64500;52.632;20.656;2022-11-13T15:23:56;33.90;;;17.80;;
75851;SDS011;64500;52.632;20.656;2022-11-13T15:26:25;32.40;;;17.20;;
75851;SDS011;64500;52.632;20.656;2022-11-13T15:28:52;30.70;;;17.40;;
75851;SDS011;64500;52.632;20.656;2022-11-13T15:31:29;34.50;;;19.60;;
75851;SDS011;64500;52.632;20.656;2022-11-13T15:33:58;34.90;;;18.70;;
75851;SDS011;64500;52.632;20.656;2022-11-13T15:36:25;36.60;;;19.70;;
75851;SDS011;64500;52.632;20.656;2022-11-13T15:38:52;37.90;;;21.20;;
75851;SDS011;64500;52.632;20.656;2022-11-13T15:41:20;31.40;;;18.60;;
75851;SDS011;64500;52.632;20.656;2022-11-13T15:43:50;34.70;;;20.00;;
75851;SDS011;64500;52.632;20.656;2022-11-13T15:46:19;32.00;;;17.60;;
75851;SDS011;64500;52.632;20.656;2022-11-13T15:48:48;34.00;;;18.50;;
75851;SDS011;64500;52.632;20.656;2022-11-13T15:51:22;31.60;;;18.70;;
75851;SDS011;64500;52.632;20.656;2022-11-13T15:54:02;39.50;;;21.70;;
75851;SDS011;64500;52.632;20.656;2022-11-13T15:56:39;52.60;;;27.30;;
75851;SDS011;64500;52.632;20.656;2022-11-13T15:59:10;53.70;;;26.60;;